createdAt,value
2022-08-28T00:02:31.866Z,91.66
2022-08-28T00:07:35.664Z,91.88
2022-08-28T00:12:38.808Z,92.11
2022-08-28T00:17:42.539Z,92.16
2022-08-28T00:22:45.746Z,92.78
2022-08-28T00:27:55.154Z,92.17
2022-08-28T00:33:01.200Z,92.24
2022-08-28T00:38:05.868Z,91.34
2022-08-28T00:43:09.893Z,91.23
2022-08-28T00:48:12.830Z,90.76
2022-08-28T00:53:15.709Z,89.83
2022-08-28T00:58:19.002Z,86.21
2022-08-28T01:03:25.213Z,83.97
2022-08-28T01:08:31.700Z,81.83
2022-08-28T01:13:35.194Z,81.46
2022-08-28T01:18:38.167Z,80.54
2022-08-28T01:23:51.958Z,79.73
2022-08-28T01:28:55.734Z,78.71
2022-08-28T01:34:01.610Z,77.81
2022-08-28T01:39:22.759Z,77.65
2022-08-28T01:44:27.108Z,77.22
2022-08-28T01:49:29.930Z,76.63
2022-08-28T01:54:32.848Z,75.53
2022-08-28T01:59:36.676Z,75.22
2022-08-28T02:04:39.848Z,74.75
2022-08-28T02:09:43.002Z,74.59
2022-08-28T02:14:45.974Z,74.47
2022-08-28T02:19:48.768Z,74.43
2022-08-28T02:24:51.577Z,74.19
2022-08-28T02:29:55.977Z,73.95
2022-08-28T02:34:58.816Z,74.29
2022-08-28T02:40:01.685Z,74.07
2022-08-28T02:45:06.840Z,74.28
2022-08-28T02:50:11.459Z,74.69
2022-08-28T02:55:17.826Z,73.16
2022-08-28T03:00:23.686Z,73.17
2022-08-28T03:05:27.260Z,73.08
2022-08-28T03:10:30.001Z,73.25
2022-08-28T03:15:32.709Z,74.13
2022-08-28T03:20:35.602Z,74.84
2022-08-28T03:25:38.701Z,74.58
2022-08-28T03:30:41.446Z,74.80
2022-08-28T03:35:44.291Z,74.33
2022-08-28T03:40:47.585Z,73.90
2022-08-28T03:46:03.008Z,73.35
2022-08-28T03:51:10.998Z,73.23
2022-08-28T03:56:16.846Z,72.91
2022-08-28T04:01:20.770Z,72.03
2022-08-28T04:06:23.611Z,70.44
2022-08-28T04:11:26.518Z,69.70
2022-08-28T04:16:29.445Z,68.77
2022-08-28T04:21:32.237Z,67.83
2022-08-28T04:26:37.088Z,67.61
2022-08-28T04:31:39.981Z,68.16
2022-08-28T04:36:42.782Z,67.37
2022-08-28T04:41:45.515Z,67.23
2022-08-28T04:46:48.454Z,68.05
2022-08-28T04:51:51.675Z,69.21
2022-08-28T04:56:54.713Z,70.41
2022-08-28T05:01:57.525Z,71.26
2022-08-28T05:07:00.587Z,70.97
2022-08-28T05:12:05.943Z,70.77
2022-08-28T05:17:09.799Z,70.83
2022-08-28T05:22:12.492Z,70.21
2022-08-28T05:27:15.273Z,69.90
2022-08-28T05:32:18.135Z,69.52
2022-08-28T05:37:21.025Z,69.43
2022-08-28T05:42:23.749Z,70.26
2022-08-28T05:47:33.389Z,71.21
2022-08-28T05:52:36.431Z,71.20
2022-08-28T05:57:40.455Z,69.58
2022-08-28T06:02:44.806Z,67.67
2022-08-28T06:07:47.632Z,65.14
2022-08-28T06:12:50.925Z,63.22
2022-08-28T06:17:54.108Z,61.76
2022-08-28T06:22:56.855Z,59.47
2022-08-28T06:27:59.631Z,58.09
2022-08-28T06:33:02.417Z,57.35
2022-08-28T06:38:05.236Z,57.60
2022-08-28T06:43:08.400Z,56.17
2022-08-28T06:48:12.591Z,55.92
2022-08-28T06:53:18.053Z,54.90
2022-08-28T06:58:20.858Z,54.33
2022-08-28T07:03:23.591Z,55.18
2022-08-28T07:08:28.127Z,54.74
2022-08-28T07:13:33.784Z,54.28
2022-08-28T07:18:37.407Z,53.98
2022-08-28T07:23:42.491Z,54.53
2022-08-28T07:28:46.022Z,54.95
2022-08-28T07:33:52.793Z,55.38
2022-08-28T07:38:58.379Z,54.86
2022-08-28T07:44:19.511Z,54.64
2022-08-28T07:49:22.673Z,54.30
2022-08-28T07:54:25.525Z,54.99
2022-08-28T07:59:34.185Z,54.92
2022-08-28T08:04:40.679Z,54.12
2022-08-28T08:09:43.982Z,53.95
2022-08-28T08:14:46.814Z,54.62
2022-08-28T08:19:49.887Z,52.79
2022-08-28T08:24:54.844Z,52.11
2022-08-28T08:29:57.556Z,52.74
2022-08-28T08:35:00.347Z,52.84
2022-08-28T08:40:05.497Z,50.67
2022-08-28T08:45:13.585Z,50.16
2022-08-28T08:50:31.189Z,49.45
2022-08-28T08:55:39.582Z,49.55
2022-08-28T09:01:24.348Z,51.34
2022-08-28T09:06:29.988Z,52.18
2022-08-28T09:11:35.464Z,53.07
2022-08-28T09:16:41.914Z,53.41
2022-08-28T09:21:46.819Z,53.61
2022-08-28T09:27:14.521Z,54.79
2022-08-28T09:32:24.089Z,55.93
2022-08-28T09:37:28.205Z,56.93
2022-08-28T09:42:49.574Z,57.60
2022-08-28T09:47:56.178Z,57.73
2022-08-28T09:53:10.109Z,57.09
2022-08-28T09:58:13.977Z,56.50
2022-08-28T10:03:22.601Z,56.08
2022-08-28T10:08:55.267Z,56.12
2022-08-28T10:14:03.608Z,56.99
2022-08-28T10:19:19.064Z,57.90
2022-08-28T10:24:31.807Z,58.58
2022-08-28T10:29:48.595Z,60.00
2022-08-28T10:35:15.887Z,60.54
2022-08-28T10:40:25.242Z,60.36
2022-08-28T10:45:30.829Z,60.25
2022-08-28T10:50:39.680Z,60.25
2022-08-28T10:56:03.276Z,60.41
2022-08-28T11:01:09.432Z,60.72
2022-08-28T11:06:30.202Z,61.16
2022-08-28T11:11:44.917Z,61.70
2022-08-28T11:16:47.998Z,62.13
2022-08-28T11:21:55.412Z,62.19
2022-08-28T11:27:21.889Z,62.71
2022-08-28T11:32:50.785Z,63.57
2022-08-28T11:37:55.300Z,64.29
2022-08-28T11:43:30.688Z,64.74
2022-08-28T11:48:36.585Z,65.14
2022-08-28T11:54:05.132Z,65.85
2022-08-28T11:59:10.949Z,66.78
2022-08-28T12:04:19.656Z,67.44
2022-08-28T12:09:50.438Z,68.49
2022-08-28T12:14:56.210Z,69.65
2022-08-28T12:20:12.018Z,70.58
2022-08-28T12:25:27.247Z,71.85
2022-08-28T12:30:39.777Z,72.79
2022-08-28T12:35:43.937Z,73.19
2022-08-28T12:40:53.809Z,73.52
2022-08-28T12:46:30.202Z,74.53
2022-08-28T12:51:35.603Z,75.85
2022-08-28T12:56:39.308Z,76.86
2022-08-28T13:01:43.006Z,78.20
2022-08-28T13:06:45.971Z,79.05
2022-08-28T13:11:51.779Z,79.92
2022-08-28T13:16:55.351Z,80.18
2022-08-28T13:22:09.776Z,80.93
2022-08-28T13:27:12.536Z,81.09
2022-08-28T13:32:19.237Z,81.40
2022-08-28T13:37:48.781Z,81.82
2022-08-28T13:42:54.195Z,81.68
2022-08-28T13:47:56.730Z,82.10
2022-08-28T13:52:59.470Z,82.06
2022-08-28T13:58:02.299Z,82.18
2022-08-28T14:03:23.780Z,82.12
2022-08-28T14:08:26.707Z,82.25
2022-08-28T14:13:29.642Z,81.78
2022-08-28T14:18:32.594Z,81.48
2022-08-28T14:23:35.452Z,81.12
2022-08-28T14:28:38.772Z,80.82
2022-08-28T14:33:42.565Z,80.35
2022-08-28T14:38:50.937Z,80.23
2022-08-28T14:43:57.066Z,79.83
2022-08-28T14:49:02.363Z,79.49
2022-08-28T14:54:06.397Z,79.47
2022-08-28T14:59:16.005Z,79.86
2022-08-28T15:04:23.102Z,80.40
2022-08-28T15:09:26.378Z,80.92
2022-08-28T15:14:29.112Z,81.19
2022-08-28T15:19:31.927Z,81.30
2022-08-28T15:24:34.896Z,81.29
2022-08-28T15:29:37.705Z,81.28
2022-08-28T15:34:41.175Z,81.30
2022-08-28T15:40:02.490Z,81.19
2022-08-28T15:45:06.383Z,80.90
2022-08-28T15:50:11.428Z,80.63
2022-08-28T15:55:14.437Z,79.84
2022-08-28T16:00:17.507Z,79.09
2022-08-28T16:05:20.349Z,78.77
2022-08-28T16:10:23.251Z,78.39
2022-08-28T16:15:25.955Z,78.34
2022-08-28T16:20:28.661Z,78.16
2022-08-28T16:25:31.680Z,78.01
2022-08-28T16:30:37.920Z,77.99
2022-08-28T16:35:48.259Z,77.86
2022-08-28T16:40:54.289Z,77.81
2022-08-28T16:45:57.314Z,77.68
2022-08-28T16:51:00.115Z,77.50
2022-08-28T16:56:04.012Z,77.40
2022-08-28T17:01:08.668Z,77.17
2022-08-28T17:06:17.596Z,76.82
2022-08-28T17:11:21.016Z,77.20
2022-08-28T17:16:24.910Z,77.32
2022-08-28T17:21:46.582Z,77.21
2022-08-28T17:26:49.288Z,77.12
2022-08-28T17:31:52.423Z,77.27
2022-08-28T17:36:55.300Z,77.32
2022-08-28T17:41:58.162Z,78.14
2022-08-28T17:47:01.299Z,78.91
2022-08-28T17:52:04.995Z,79.30
2022-08-28T17:57:07.924Z,79.98
2022-08-28T18:02:11.217Z,80.10
2022-08-28T18:07:14.012Z,79.92
2022-08-28T18:12:16.951Z,80.63
2022-08-28T18:17:19.890Z,80.73
2022-08-28T18:22:26.460Z,80.73
2022-08-28T18:27:32.819Z,80.85
2022-08-28T18:32:35.629Z,80.64
2022-08-28T18:37:38.550Z,79.94
2022-08-28T18:42:41.380Z,79.82
2022-08-28T18:47:44.262Z,80.05
2022-08-28T18:52:47.022Z,80.34
2022-08-28T18:57:49.984Z,80.51
2022-08-28T19:02:55.059Z,80.56
2022-08-28T19:07:58.841Z,80.90
2022-08-28T19:13:03.974Z,80.98
2022-08-28T19:18:07.384Z,81.09
2022-08-28T19:23:13.248Z,80.92
2022-08-28T19:28:19.690Z,80.93
2022-08-28T19:33:22.626Z,80.98
2022-08-28T19:38:25.446Z,81.21
2022-08-28T19:43:44.391Z,81.50
2022-08-28T19:48:49.412Z,81.89
2022-08-28T19:53:58.008Z,81.68
2022-08-28T19:59:03.065Z,81.85
2022-08-28T20:04:08.045Z,82.22
2022-08-28T20:09:13.128Z,82.10
2022-08-28T20:14:17.610Z,81.85
2022-08-28T20:19:21.195Z,81.08
2022-08-28T20:24:24.578Z,80.90
2022-08-28T20:29:27.436Z,80.50
2022-08-28T20:34:30.145Z,81.31
2022-08-28T20:39:33.062Z,82.47
2022-08-28T20:44:36.246Z,83.10
2022-08-28T20:49:39.378Z,84.05
2022-08-28T20:54:42.440Z,85.01
2022-08-28T20:59:46.106Z,85.85
2022-08-28T21:04:49.596Z,86.55
2022-08-28T21:10:04.311Z,87.34
2022-08-28T21:15:09.691Z,87.66
2022-08-28T21:20:14.431Z,87.85
2022-08-28T21:25:17.704Z,88.20
2022-08-28T21:30:21.808Z,88.61
2022-08-28T21:35:25.058Z,89.63
2022-08-28T21:40:27.877Z,90.62
2022-08-28T21:45:30.757Z,91.32
2022-08-28T21:50:34.106Z,91.41
2022-08-28T21:55:36.907Z,91.93
2022-08-28T22:00:41.191Z,92.22
2022-08-28T22:05:45.013Z,92.47
2022-08-28T22:10:48.173Z,92.42
2022-08-28T22:15:51.181Z,91.92
2022-08-28T22:21:12.517Z,91.38
2022-08-28T22:26:19.192Z,90.74
2022-08-28T22:31:22.353Z,90.67
2022-08-28T22:36:25.119Z,90.61
2022-08-28T22:41:32.819Z,90.52
2022-08-28T22:46:36.258Z,90.42
2022-08-28T22:51:39.311Z,90.51
2022-08-28T22:56:42.578Z,90.75
2022-08-28T23:01:45.696Z,90.54
2022-08-28T23:06:48.532Z,90.36
2022-08-28T23:11:51.737Z,90.18
2022-08-28T23:16:56.381Z,90.32
2022-08-28T23:22:00.219Z,90.62
2022-08-28T23:27:32.129Z,91.09
2022-08-28T23:32:25.995Z,92.05
2022-08-28T23:37:29.092Z,92.82
2022-08-28T23:42:34.006Z,93.19
2022-08-28T23:47:40.356Z,93.70
2022-08-28T23:52:44.270Z,93.03
2022-08-28T23:57:47.071Z,92.54
